Anacortes, Washington
Current Conditions -  °F | °C
As of 1:35 AM on Sunday 21 Dec 2014 (Local Time) from KBVS Reporting Station
Clear Clear  
Wind Chill: 52°   Ceiling: Unl
Heat Index: 52°   Visibility: 10mi
Dew Point: 46°   Wind: 14mph
Humidity: 82%   Direction: 240°WSW
Pressure: 29.58"   Gusts: 23mph
Location:  48.51°N, 122.61°W
Report Text: KBVS 210935Z AUTO 24012G20KT 040V050 10SM CLR 11/08 A2958 RMK A01 P000
Loading
Personal Weather Stations






























Interactive Weather Map New forecast layout! Learn more

10-Day Weather Forecast

Advertisements
Track Severe Weather on mobile